sensor_id;sensor_type;location;lat;lon;timestamp;P1;durP1;ratioP1;P2;durP2;ratioP2
67721;SDS011;58309;45.292;11.820;2023-05-21T00:02:02;17.52;;;13.13;;
67721;SDS011;58309;45.292;11.820;2023-05-21T00:04:28;17.77;;;13.07;;
67721;SDS011;58309;45.292;11.820;2023-05-21T00:06:56;17.27;;;12.73;;
67721;SDS011;58309;45.292;11.820;2023-05-21T00:09:22;19.73;;;13.00;;
67721;SDS011;58309;45.292;11.820;2023-05-21T00:11:48;16.88;;;13.68;;
67721;SDS011;58309;45.292;11.820;2023-05-21T00:14:14;15.05;;;12.75;;
67721;SDS011;58309;45.292;11.820;2023-05-21T00:16:39;18.13;;;13.95;;
67721;SDS011;58309;45.292;11.820;2023-05-21T00:19:05;20.10;;;14.88;;
67721;SDS011;58309;45.292;11.820;2023-05-21T00:21:30;17.88;;;13.18;;
67721;SDS011;58309;45.292;11.820;2023-05-21T00:23:56;18.42;;;13.15;;
67721;SDS011;58309;45.292;11.820;2023-05-21T00:26:21;15.88;;;12.15;;
67721;SDS011;58309;45.292;11.820;2023-05-21T00:28:48;16.02;;;12.70;;
67721;SDS011;58309;45.292;11.820;2023-05-21T00:31:14;14.60;;;12.32;;
67721;SDS011;58309;45.292;11.820;2023-05-21T00:33:41;14.63;;;12.32;;
67721;SDS011;58309;45.292;11.820;2023-05-21T00:36:07;15.18;;;12.45;;
67721;SDS011;58309;45.292;11.820;2023-05-21T00:38:33;17.00;;;12.57;;
67721;SDS011;58309;45.292;11.820;2023-05-21T00:41:00;15.40;;;12.18;;
67721;SDS011;58309;45.292;11.820;2023-05-21T00:43:26;21.17;;;12.05;;
67721;SDS011;58309;45.292;11.820;2023-05-21T00:45:52;13.27;;;11.82;;
67721;SDS011;58309;45.292;11.820;2023-05-21T00:48:18;15.95;;;11.90;;
67721;SDS011;58309;45.292;11.820;2023-05-21T00:50:44;15.05;;;11.15;;
67721;SDS011;58309;45.292;11.820;2023-05-21T00:53:11;16.15;;;11.32;;
67721;SDS011;58309;45.292;11.820;2023-05-21T00:55:39;15.90;;;12.77;;
67721;SDS011;58309;45.292;11.820;2023-05-21T00:58:05;13.50;;;11.63;;
67721;SDS011;58309;45.292;11.820;2023-05-21T01:00:34;13.40;;;11.77;;
67721;SDS011;58309;45.292;11.820;2023-05-21T01:05:27;17.42;;;12.23;;
67721;SDS011;58309;45.292;11.820;2023-05-21T01:07:53;14.38;;;11.55;;
67721;SDS011;58309;45.292;11.820;2023-05-21T01:10:20;14.18;;;11.95;;
67721;SDS011;58309;45.292;11.820;2023-05-21T01:12:45;13.57;;;11.48;;
67721;SDS011;58309;45.292;11.820;2023-05-21T01:15:12;14.70;;;12.13;;
67721;SDS011;58309;45.292;11.820;2023-05-21T01:17:38;17.38;;;11.45;;
67721;SDS011;58309;45.292;11.820;2023-05-21T01:20:05;17.40;;;11.52;;
67721;SDS011;58309;45.292;11.820;2023-05-21T01:25:03;14.60;;;10.88;;
67721;SDS011;58309;45.292;11.820;2023-05-21T01:27:29;12.40;;;10.68;;
67721;SDS011;58309;45.292;11.820;2023-05-21T01:29:54;15.50;;;11.52;;
67721;SDS011;58309;45.292;11.820;2023-05-21T01:32:24;12.88;;;10.98;;
67721;SDS011;58309;45.292;11.820;2023-05-21T01:35:03;15.55;;;11.23;;
67721;SDS011;58309;45.292;11.820;2023-05-21T01:43:27;14.80;;;12.05;;
67721;SDS011;58309;45.292;11.820;2023-05-21T01:45:56;18.13;;;11.53;;
67721;SDS011;58309;45.292;11.820;2023-05-21T01:48:24;16.05;;;11.55;;
67721;SDS011;58309;45.292;11.820;2023-05-21T01:50:52;19.23;;;11.85;;
67721;SDS011;58309;45.292;11.820;2023-05-21T01:53:19;15.45;;;10.98;;
67721;SDS011;58309;45.292;11.820;2023-05-21T01:55:45;12.98;;;10.90;;
67721;SDS011;58309;45.292;11.820;2023-05-21T01:58:12;14.30;;;10.68;;
67721;SDS011;58309;45.292;11.820;2023-05-21T02:00:39;13.55;;;10.73;;
67721;SDS011;58309;45.292;11.820;2023-05-21T02:03:06;16.67;;;10.68;;
67721;SDS011;58309;45.292;11.820;2023-05-21T02:05:32;14.82;;;10.57;;
67721;SDS011;58309;45.292;11.820;2023-05-21T02:07:58;11.90;;;10.10;;
67721;SDS011;58309;45.292;11.820;2023-05-21T02:10:24;13.95;;;10.40;;
67721;SDS011;58309;45.292;11.820;2023-05-21T02:12:50;15.93;;;10.65;;
67721;SDS011;58309;45.292;11.820;2023-05-21T02:15:15;14.77;;;10.55;;
67721;SDS011;58309;45.292;11.820;2023-05-21T02:17:44;15.30;;;10.43;;
67721;SDS011;58309;45.292;11.820;2023-05-21T02:20:10;12.55;;;10.60;;
67721;SDS011;58309;45.292;11.820;2023-05-21T02:22:40;16.67;;;10.48;;
67721;SDS011;58309;45.292;11.820;2023-05-21T02:25:07;18.48;;;11.82;;
67721;SDS011;58309;45.292;11.820;2023-05-21T02:27:34;16.30;;;10.68;;
67721;SDS011;58309;45.292;11.820;2023-05-21T02:30:01;15.35;;;10.43;;
67721;SDS011;58309;45.292;11.820;2023-05-21T02:32:27;12.70;;;10.63;;
67721;SDS011;58309;45.292;11.820;2023-05-21T02:34:53;13.40;;;10.60;;
67721;SDS011;58309;45.292;11.820;2023-05-21T02:37:18;12.10;;;10.80;;
67721;SDS011;58309;45.292;11.820;2023-05-21T02:39:44;15.60;;;10.43;;
67721;SDS011;58309;45.292;11.820;2023-05-21T02:42:10;12.98;;;10.23;;
67721;SDS011;58309;45.292;11.820;2023-05-21T02:44:35;12.80;;;10.05;;
67721;SDS011;58309;45.292;11.820;2023-05-21T02:47:01;11.93;;;9.82;;
67721;SDS011;58309;45.292;11.820;2023-05-21T02:49:26;14.88;;;11.07;;
67721;SDS011;58309;45.292;11.820;2023-05-21T02:51:52;14.55;;;10.60;;
67721;SDS011;58309;45.292;11.820;2023-05-21T02:54:17;16.80;;;11.15;;
67721;SDS011;58309;45.292;11.820;2023-05-21T02:56:42;14.55;;;11.02;;
67721;SDS011;58309;45.292;11.820;2023-05-21T02:59:08;14.23;;;10.68;;
67721;SDS011;58309;45.292;11.820;2023-05-21T03:01:33;15.23;;;11.48;;
67721;SDS011;58309;45.292;11.820;2023-05-21T03:03:59;13.05;;;10.57;;
67721;SDS011;58309;45.292;11.820;2023-05-21T03:06:24;13.25;;;10.75;;
67721;SDS011;58309;45.292;11.820;2023-05-21T03:08:50;14.50;;;10.88;;
67721;SDS011;58309;45.292;11.820;2023-05-21T03:11:17;14.68;;;10.93;;
67721;SDS011;58309;45.292;11.820;2023-05-21T03:13:43;12.13;;;10.63;;
67721;SDS011;58309;45.292;11.820;2023-05-21T03:16:08;14.38;;;10.60;;
67721;SDS011;58309;45.292;11.820;2023-05-21T03:18:34;11.45;;;10.25;;
67721;SDS011;58309;45.292;11.820;2023-05-21T03:20:59;13.40;;;11.27;;
67721;SDS011;58309;45.292;11.820;2023-05-21T03:23:25;13.23;;;10.85;;
67721;SDS011;58309;45.292;11.820;2023-05-21T03:25:51;14.80;;;10.80;;
67721;SDS011;58309;45.292;11.820;2023-05-21T03:28:16;16.45;;;10.25;;
67721;SDS011;58309;45.292;11.820;2023-05-21T03:30:42;14.00;;;10.52;;
67721;SDS011;58309;45.292;11.820;2023-05-21T03:33:12;14.30;;;10.63;;
67721;SDS011;58309;45.292;11.820;2023-05-21T03:35:38;14.10;;;11.00;;
67721;SDS011;58309;45.292;11.820;2023-05-21T03:38:03;13.75;;;11.50;;
67721;SDS011;58309;45.292;11.820;2023-05-21T03:40:29;13.63;;;11.48;;
67721;SDS011;58309;45.292;11.820;2023-05-21T03:42:54;12.30;;;10.60;;
67721;SDS011;58309;45.292;11.820;2023-05-21T03:45:20;13.30;;;10.98;;
67721;SDS011;58309;45.292;11.820;2023-05-21T03:47:45;15.32;;;11.05;;
67721;SDS011;58309;45.292;11.820;2023-05-21T03:50:12;17.20;;;10.70;;
67721;SDS011;58309;45.292;11.820;2023-05-21T03:52:38;14.15;;;11.07;;
67721;SDS011;58309;45.292;11.820;2023-05-21T03:55:03;12.38;;;10.48;;
67721;SDS011;58309;45.292;11.820;2023-05-21T03:57:30;12.23;;;10.35;;
67721;SDS011;58309;45.292;11.820;2023-05-21T03:59:55;12.75;;;11.05;;
67721;SDS011;58309;45.292;11.820;2023-05-21T04:02:24;15.68;;;11.02;;
67721;SDS011;58309;45.292;11.820;2023-05-21T04:04:51;14.52;;;10.45;;
67721;SDS011;58309;45.292;11.820;2023-05-21T04:07:17;11.65;;;10.45;;
67721;SDS011;58309;45.292;11.820;2023-05-21T04:09:43;11.82;;;10.52;;
67721;SDS011;58309;45.292;11.820;2023-05-21T04:12:10;12.77;;;10.23;;
67721;SDS011;58309;45.292;11.820;2023-05-21T04:14:36;14.00;;;11.00;;
67721;SDS011;58309;45.292;11.820;2023-05-21T04:17:01;16.05;;;10.88;;
67721;SDS011;58309;45.292;11.820;2023-05-21T04:19:30;13.68;;;10.70;;
67721;SDS011;58309;45.292;11.820;2023-05-21T04:21:57;12.43;;;10.50;;
67721;SDS011;58309;45.292;11.820;2023-05-21T04:24:23;14.43;;;10.90;;
67721;SDS011;58309;45.292;11.820;2023-05-21T04:26:49;11.70;;;10.43;;
67721;SDS011;58309;45.292;11.820;2023-05-21T04:29:14;12.43;;;10.02;;
67721;SDS011;58309;45.292;11.820;2023-05-21T04:31:45;12.77;;;10.80;;
67721;SDS011;58309;45.292;11.820;2023-05-21T04:34:13;13.63;;;10.35;;
67721;SDS011;58309;45.292;11.820;2023-05-21T04:36:42;13.05;;;10.52;;
67721;SDS011;58309;45.292;11.820;2023-05-21T04:39:09;14.63;;;10.63;;
67721;SDS011;58309;45.292;11.820;2023-05-21T04:41:38;15.00;;;10.33;;
67721;SDS011;58309;45.292;11.820;2023-05-21T04:44:07;15.07;;;10.25;;
67721;SDS011;58309;45.292;11.820;2023-05-21T04:46:33;12.48;;;10.38;;
67721;SDS011;58309;45.292;11.820;2023-05-21T04:48:59;13.77;;;10.68;;
67721;SDS011;58309;45.292;11.820;2023-05-21T04:51:28;12.98;;;10.35;;
67721;SDS011;58309;45.292;11.820;2023-05-21T04:53:54;14.30;;;11.00;;
67721;SDS011;58309;45.292;11.820;2023-05-21T04:56:22;15.63;;;10.10;;
67721;SDS011;58309;45.292;11.820;2023-05-21T04:58:51;11.48;;;10.27;;
67721;SDS011;58309;45.292;11.820;2023-05-21T05:01:18;11.35;;;9.90;;
67721;SDS011;58309;45.292;11.820;2023-05-21T05:03:46;11.93;;;10.57;;
67721;SDS011;58309;45.292;11.820;2023-05-21T05:06:13;12.77;;;11.00;;
67721;SDS011;58309;45.292;11.820;2023-05-21T05:08:39;13.40;;;10.60;;
67721;SDS011;58309;45.292;11.820;2023-05-21T05:11:06;11.50;;;9.90;;
67721;SDS011;58309;45.292;11.820;2023-05-21T05:13:32;12.05;;;10.00;;
67721;SDS011;58309;45.292;11.820;2023-05-21T05:15:58;12.85;;;10.45;;
67721;SDS011;58309;45.292;11.820;2023-05-21T05:18:24;12.18;;;10.35;;
67721;SDS011;58309;45.292;11.820;2023-05-21T05:20:50;12.30;;;9.77;;
67721;SDS011;58309;45.292;11.820;2023-05-21T05:23:15;14.23;;;10.48;;
67721;SDS011;58309;45.292;11.820;2023-05-21T05:25:41;14.27;;;10.32;;
67721;SDS011;58309;45.292;11.820;2023-05-21T05:28:06;12.90;;;10.25;;
67721;SDS011;58309;45.292;11.820;2023-05-21T05:30:32;12.02;;;10.15;;
67721;SDS011;58309;45.292;11.820;2023-05-21T05:32:58;11.77;;;10.30;;
67721;SDS011;58309;45.292;11.820;2023-05-21T05:35:23;16.65;;;10.50;;
67721;SDS011;58309;45.292;11.820;2023-05-21T05:37:48;11.90;;;10.20;;
67721;SDS011;58309;45.292;11.820;2023-05-21T05:40:14;14.43;;;10.55;;
67721;SDS011;58309;45.292;11.820;2023-05-21T05:42:40;11.45;;;10.25;;
67721;SDS011;58309;45.292;11.820;2023-05-21T05:45:05;11.93;;;10.30;;
67721;SDS011;58309;45.292;11.820;2023-05-21T05:47:31;15.57;;;9.77;;
67721;SDS011;58309;45.292;11.820;2023-05-21T05:49:57;12.50;;;10.68;;
67721;SDS011;58309;45.292;11.820;2023-05-21T05:52:22;11.43;;;10.15;;
67721;SDS011;58309;45.292;11.820;2023-05-21T05:54:48;12.88;;;10.95;;
67721;SDS011;58309;45.292;11.820;2023-05-21T05:57:13;16.80;;;10.95;;
67721;SDS011;58309;45.292;11.820;2023-05-21T05:59:39;15.13;;;11.77;;
67721;SDS011;58309;45.292;11.820;2023-05-21T06:02:06;13.85;;;11.15;;
67721;SDS011;58309;45.292;11.820;2023-05-21T06:04:31;14.73;;;10.77;;
67721;SDS011;58309;45.292;11.820;2023-05-21T06:06:57;13.13;;;10.30;;
67721;SDS011;58309;45.292;11.820;2023-05-21T06:09:23;14.80;;;10.88;;
67721;SDS011;58309;45.292;11.820;2023-05-21T06:11:49;12.45;;;10.38;;
67721;SDS011;58309;45.292;11.820;2023-05-21T06:14:14;13.52;;;10.45;;
67721;SDS011;58309;45.292;11.820;2023-05-21T06:16:40;14.32;;;10.55;;
67721;SDS011;58309;45.292;11.820;2023-05-21T06:19:05;11.40;;;10.18;;
67721;SDS011;58309;45.292;11.820;2023-05-21T06:21:31;11.50;;;10.30;;
67721;SDS011;58309;45.292;11.820;2023-05-21T06:23:56;13.90;;;10.43;;
67721;SDS011;58309;45.292;11.820;2023-05-21T06:26:22;11.18;;;9.73;;
67721;SDS011;58309;45.292;11.820;2023-05-21T06:28:47;11.57;;;9.30;;
67721;SDS011;58309;45.292;11.820;2023-05-21T06:31:13;13.40;;;9.43;;
67721;SDS011;58309;45.292;11.820;2023-05-21T06:33:40;10.40;;;8.93;;
67721;SDS011;58309;45.292;11.820;2023-05-21T06:36:05;16.00;;;10.02;;
67721;SDS011;58309;45.292;11.820;2023-05-21T06:38:31;12.38;;;9.25;;
67721;SDS011;58309;45.292;11.820;2023-05-21T06:40:56;10.70;;;8.90;;
67721;SDS011;58309;45.292;11.820;2023-05-21T06:43:22;12.27;;;8.73;;
67721;SDS011;58309;45.292;11.820;2023-05-21T06:45:48;9.07;;;8.10;;
67721;SDS011;58309;45.292;11.820;2023-05-21T06:48:14;14.30;;;9.02;;
67721;SDS011;58309;45.292;11.820;2023-05-21T06:50:42;11.35;;;8.60;;
67721;SDS011;58309;45.292;11.820;2023-05-21T06:53:08;9.88;;;8.32;;
67721;SDS011;58309;45.292;11.820;2023-05-21T06:55:34;11.20;;;8.60;;
67721;SDS011;58309;45.292;11.820;2023-05-21T06:58:00;9.93;;;8.93;;
67721;SDS011;58309;45.292;11.820;2023-05-21T07:00:25;10.50;;;9.07;;
67721;SDS011;58309;45.292;11.820;2023-05-21T07:02:51;10.18;;;9.10;;
67721;SDS011;58309;45.292;11.820;2023-05-21T07:05:17;10.45;;;9.02;;
67721;SDS011;58309;45.292;11.820;2023-05-21T07:07:42;12.20;;;9.80;;
67721;SDS011;58309;45.292;11.820;2023-05-21T07:10:08;12.63;;;8.98;;
67721;SDS011;58309;45.292;11.820;2023-05-21T07:12:34;11.52;;;9.00;;
67721;SDS011;58309;45.292;11.820;2023-05-21T07:14:59;10.05;;;8.88;;
67721;SDS011;58309;45.292;11.820;2023-05-21T07:17:25;10.07;;;8.68;;
67721;SDS011;58309;45.292;11.820;2023-05-21T07:19:50;10.68;;;8.43;;
67721;SDS011;58309;45.292;11.820;2023-05-21T07:22:16;9.68;;;8.65;;
67721;SDS011;58309;45.292;11.820;2023-05-21T07:24:41;9.93;;;8.63;;
67721;SDS011;58309;45.292;11.820;2023-05-21T07:27:07;10.38;;;8.85;;
67721;SDS011;58309;45.292;11.820;2023-05-21T07:29:32;9.95;;;8.13;;
67721;SDS011;58309;45.292;11.820;2023-05-21T07:31:58;9.80;;;8.63;;
67721;SDS011;58309;45.292;11.820;2023-05-21T07:34:24;9.40;;;8.43;;
67721;SDS011;58309;45.292;11.820;2023-05-21T07:36:50;8.98;;;8.07;;
67721;SDS011;58309;45.292;11.820;2023-05-21T07:39:15;9.02;;;8.13;;
67721;SDS011;58309;45.292;11.820;2023-05-21T07:41:41;10.63;;;8.48;;
67721;SDS011;58309;45.292;11.820;2023-05-21T07:44:08;11.63;;;8.10;;
67721;SDS011;58309;45.292;11.820;2023-05-21T07:46:33;8.60;;;7.80;;
67721;SDS011;58309;45.292;11.820;2023-05-21T07:48:59;8.90;;;8.00;;
67721;SDS011;58309;45.292;11.820;2023-05-21T07:51:24;12.48;;;8.23;;
67721;SDS011;58309;45.292;11.820;2023-05-21T07:53:51;7.28;;;6.57;;
67721;SDS011;58309;45.292;11.820;2023-05-21T07:56:16;10.43;;;6.72;;
67721;SDS011;58309;45.292;11.820;2023-05-21T07:58:42;7.50;;;6.07;;
67721;SDS011;58309;45.292;11.820;2023-05-21T08:01:10;6.88;;;6.15;;
67721;SDS011;58309;45.292;11.820;2023-05-21T08:03:36;8.63;;;6.63;;
67721;SDS011;58309;45.292;11.820;2023-05-21T08:06:01;8.85;;;6.20;;
67721;SDS011;58309;45.292;11.820;2023-05-21T08:08:27;8.13;;;6.30;;
67721;SDS011;58309;45.292;11.820;2023-05-21T08:10:53;9.40;;;6.60;;
67721;SDS011;58309;45.292;11.820;2023-05-21T08:13:18;9.88;;;6.30;;
67721;SDS011;58309;45.292;11.820;2023-05-21T08:15:44;12.10;;;6.85;;
67721;SDS011;58309;45.292;11.820;2023-05-21T08:18:10;6.95;;;5.90;;
67721;SDS011;58309;45.292;11.820;2023-05-21T08:20:36;7.50;;;6.57;;
67721;SDS011;58309;45.292;11.820;2023-05-21T08:23:02;9.00;;;6.22;;
67721;SDS011;58309;45.292;11.820;2023-05-21T08:25:28;11.48;;;6.35;;
67721;SDS011;58309;45.292;11.820;2023-05-21T08:27:54;9.23;;;6.50;;
67721;SDS011;58309;45.292;11.820;2023-05-21T08:30:19;7.78;;;5.90;;
67721;SDS011;58309;45.292;11.820;2023-05-21T08:32:46;8.35;;;6.32;;
67721;SDS011;58309;45.292;11.820;2023-05-21T08:35:12;6.90;;;6.15;;
67721;SDS011;58309;45.292;11.820;2023-05-21T08:37:38;9.93;;;6.50;;
67721;SDS011;58309;45.292;11.820;2023-05-21T08:40:03;15.52;;;6.60;;
67721;SDS011;58309;45.292;11.820;2023-05-21T08:45:22;8.85;;;6.10;;
67721;SDS011;58309;45.292;11.820;2023-05-21T08:47:53;10.35;;;6.28;;
67721;SDS011;58309;45.292;11.820;2023-05-21T08:50:24;7.30;;;5.85;;
67721;SDS011;58309;45.292;11.820;2023-05-21T08:52:51;8.73;;;6.53;;
67721;SDS011;58309;45.292;11.820;2023-05-21T08:55:19;9.73;;;6.10;;
67721;SDS011;58309;45.292;11.820;2023-05-21T08:57:46;12.40;;;6.70;;
67721;SDS011;58309;45.292;11.820;2023-05-21T09:00:13;8.38;;;6.40;;
67721;SDS011;58309;45.292;11.820;2023-05-21T09:02:39;10.63;;;6.57;;
67721;SDS011;58309;45.292;11.820;2023-05-21T09:05:05;8.75;;;6.25;;
67721;SDS011;58309;45.292;11.820;2023-05-21T09:07:33;8.20;;;6.28;;
67721;SDS011;58309;45.292;11.820;2023-05-21T09:10:07;11.27;;;6.00;;
67721;SDS011;58309;45.292;11.820;2023-05-21T09:12:37;8.77;;;6.43;;
67721;SDS011;58309;45.292;11.820;2023-05-21T09:15:04;10.02;;;6.00;;
67721;SDS011;58309;45.292;11.820;2023-05-21T09:17:30;7.45;;;6.00;;
67721;SDS011;58309;45.292;11.820;2023-05-21T09:20:06;6.88;;;6.22;;
67721;SDS011;58309;45.292;11.820;2023-05-21T09:22:44;9.73;;;5.70;;
67721;SDS011;58309;45.292;11.820;2023-05-21T09:25:19;9.43;;;6.25;;
67721;SDS011;58309;45.292;11.820;2023-05-21T09:27:47;6.40;;;5.60;;
67721;SDS011;58309;45.292;11.820;2023-05-21T09:30:16;8.30;;;6.10;;
67721;SDS011;58309;45.292;11.820;2023-05-21T09:32:43;7.38;;;6.10;;
67721;SDS011;58309;45.292;11.820;2023-05-21T09:35:13;15.50;;;5.97;;
67721;SDS011;58309;45.292;11.820;2023-05-21T09:37:42;11.50;;;6.25;;
67721;SDS011;58309;45.292;11.820;2023-05-21T09:47:44;10.38;;;7.30;;
67721;SDS011;58309;45.292;11.820;2023-05-21T09:50:11;6.63;;;5.93;;
67721;SDS011;58309;45.292;11.820;2023-05-21T09:52:38;7.57;;;5.40;;
67721;SDS011;58309;45.292;11.820;2023-05-21T09:55:09;7.10;;;5.85;;
67721;SDS011;58309;45.292;11.820;2023-05-21T09:57:41;13.38;;;9.15;;
67721;SDS011;58309;45.292;11.820;2023-05-21T10:00:29;13.82;;;6.78;;
67721;SDS011;58309;45.292;11.820;2023-05-21T10:02:55;6.65;;;5.95;;
67721;SDS011;58309;45.292;11.820;2023-05-21T10:05:29;7.00;;;6.30;;
67721;SDS011;58309;45.292;11.820;2023-05-21T10:07:58;7.20;;;5.78;;
67721;SDS011;58309;45.292;11.820;2023-05-21T10:10:28;6.07;;;5.38;;
67721;SDS011;58309;45.292;11.820;2023-05-21T10:12:59;6.50;;;5.85;;
67721;SDS011;58309;45.292;11.820;2023-05-21T10:15:30;23.13;;;16.88;;
67721;SDS011;58309;45.292;11.820;2023-05-21T10:18:00;9.15;;;6.03;;
67721;SDS011;58309;45.292;11.820;2023-05-21T10:20:27;7.05;;;6.10;;
67721;SDS011;58309;45.292;11.820;2023-05-21T10:22:53;15.50;;;11.57;;
67721;SDS011;58309;45.292;11.820;2023-05-21T10:25:19;7.22;;;6.53;;
67721;SDS011;58309;45.292;11.820;2023-05-21T10:27:47;19.80;;;13.73;;
67721;SDS011;58309;45.292;11.820;2023-05-21T10:30:13;7.03;;;5.72;;
67721;SDS011;58309;45.292;11.820;2023-05-21T10:32:39;10.60;;;5.95;;
67721;SDS011;58309;45.292;11.820;2023-05-21T10:35:08;8.88;;;6.38;;
67721;SDS011;58309;45.292;11.820;2023-05-21T10:37:34;6.65;;;5.45;;
67721;SDS011;58309;45.292;11.820;2023-05-21T10:40:00;11.32;;;8.10;;
67721;SDS011;58309;45.292;11.820;2023-05-21T10:50:30;8.38;;;5.05;;
67721;SDS011;58309;45.292;11.820;2023-05-21T10:58:46;7.63;;;6.43;;
67721;SDS011;58309;45.292;11.820;2023-05-21T11:01:42;6.80;;;5.10;;
67721;SDS011;58309;45.292;11.820;2023-05-21T11:04:09;7.13;;;4.80;;
67721;SDS011;58309;45.292;11.820;2023-05-21T11:06:36;5.38;;;4.70;;
67721;SDS011;58309;45.292;11.820;2023-05-21T11:09:11;5.22;;;4.72;;
67721;SDS011;58309;45.292;11.820;2023-05-21T11:11:38;7.38;;;5.10;;
67721;SDS011;58309;45.292;11.820;2023-05-21T11:14:28;8.98;;;5.40;;
67721;SDS011;58309;45.292;11.820;2023-05-21T11:20:10;8.70;;;5.10;;
67721;SDS011;58309;45.292;11.820;2023-05-21T11:22:37;8.82;;;5.00;;
67721;SDS011;58309;45.292;11.820;2023-05-21T11:25:03;10.48;;;5.05;;
67721;SDS011;58309;45.292;11.820;2023-05-21T11:27:33;8.20;;;4.90;;
67721;SDS011;58309;45.292;11.820;2023-05-21T11:30:07;6.03;;;5.20;;
67721;SDS011;58309;45.292;11.820;2023-05-21T11:32:38;5.97;;;4.90;;
67721;SDS011;58309;45.292;11.820;2023-05-21T11:35:04;5.95;;;4.95;;
67721;SDS011;58309;45.292;11.820;2023-05-21T11:37:31;6.85;;;4.75;;
67721;SDS011;58309;45.292;11.820;2023-05-21T11:42:44;6.82;;;4.65;;
67721;SDS011;58309;45.292;11.820;2023-05-21T11:45:15;7.57;;;5.05;;
67721;SDS011;58309;45.292;11.820;2023-05-21T11:50:11;6.32;;;5.03;;
67721;SDS011;58309;45.292;11.820;2023-05-21T11:52:38;7.63;;;5.10;;
67721;SDS011;58309;45.292;11.820;2023-05-21T11:55:05;6.05;;;4.85;;
67721;SDS011;58309;45.292;11.820;2023-05-21T11:57:31;6.22;;;4.80;;
67721;SDS011;58309;45.292;11.820;2023-05-21T11:59:58;7.70;;;5.25;;
67721;SDS011;58309;45.292;11.820;2023-05-21T12:02:25;7.70;;;4.90;;
67721;SDS011;58309;45.292;11.820;2023-05-21T12:04:52;7.63;;;6.82;;
67721;SDS011;58309;45.292;11.820;2023-05-21T12:07:18;6.75;;;5.07;;
67721;SDS011;58309;45.292;11.820;2023-05-21T12:09:46;6.45;;;5.25;;
67721;SDS011;58309;45.292;11.820;2023-05-21T12:12:13;5.53;;;4.90;;
67721;SDS011;58309;45.292;11.820;2023-05-21T12:14:46;7.97;;;4.57;;
67721;SDS011;58309;45.292;11.820;2023-05-21T12:17:31;5.00;;;4.50;;
67721;SDS011;58309;45.292;11.820;2023-05-21T12:19:57;6.45;;;4.70;;
67721;SDS011;58309;45.292;11.820;2023-05-21T12:22:23;7.38;;;4.60;;
67721;SDS011;58309;45.292;11.820;2023-05-21T12:24:49;6.20;;;4.32;;
67721;SDS011;58309;45.292;11.820;2023-05-21T12:27:17;7.22;;;5.18;;
67721;SDS011;58309;45.292;11.820;2023-05-21T12:29:44;8.65;;;5.28;;
67721;SDS011;58309;45.292;11.820;2023-05-21T12:32:14;5.90;;;5.00;;
67721;SDS011;58309;45.292;11.820;2023-05-21T12:37:23;7.00;;;4.85;;
67721;SDS011;58309;45.292;11.820;2023-05-21T12:39:51;7.93;;;4.93;;
67721;SDS011;58309;45.292;11.820;2023-05-21T12:42:27;7.68;;;5.18;;
67721;SDS011;58309;45.292;11.820;2023-05-21T12:47:29;8.00;;;4.85;;
67721;SDS011;58309;45.292;11.820;2023-05-21T12:49:56;9.10;;;5.10;;
67721;SDS011;58309;45.292;11.820;2023-05-21T12:52:22;7.55;;;5.00;;
67721;SDS011;58309;45.292;11.820;2023-05-21T12:54:49;8.50;;;5.03;;
67721;SDS011;58309;45.292;11.820;2023-05-21T12:57:17;8.15;;;5.72;;
67721;SDS011;58309;45.292;11.820;2023-05-21T12:59:47;6.93;;;5.47;;
67721;SDS011;58309;45.292;11.820;2023-05-21T13:02:20;5.72;;;5.13;;
67721;SDS011;58309;45.292;11.820;2023-05-21T13:04:57;8.02;;;4.80;;
67721;SDS011;58309;45.292;11.820;2023-05-21T13:07:24;6.45;;;4.72;;
67721;SDS011;58309;45.292;11.820;2023-05-21T13:09:54;8.50;;;4.78;;
67721;SDS011;58309;45.292;11.820;2023-05-21T13:12:23;6.25;;;4.93;;
67721;SDS011;58309;45.292;11.820;2023-05-21T13:14:51;5.57;;;4.90;;
67721;SDS011;58309;45.292;11.820;2023-05-21T13:17:18;6.30;;;4.43;;
67721;SDS011;58309;45.292;11.820;2023-05-21T13:22:40;8.35;;;4.70;;
67721;SDS011;58309;45.292;11.820;2023-05-21T13:25:07;10.55;;;5.13;;
67721;SDS011;58309;45.292;11.820;2023-05-21T13:27:39;8.30;;;4.78;;
67721;SDS011;58309;45.292;11.820;2023-05-21T13:30:05;7.57;;;4.93;;
67721;SDS011;58309;45.292;11.820;2023-05-21T13:32:31;7.43;;;5.13;;
67721;SDS011;58309;45.292;11.820;2023-05-21T13:34:57;7.43;;;4.95;;
67721;SDS011;58309;45.292;11.820;2023-05-21T13:37:22;8.20;;;5.18;;
67721;SDS011;58309;45.292;11.820;2023-05-21T13:39:48;6.43;;;4.80;;
67721;SDS011;58309;45.292;11.820;2023-05-21T13:42:14;5.88;;;4.82;;
67721;SDS011;58309;45.292;11.820;2023-05-21T13:44:39;6.15;;;4.80;;
67721;SDS011;58309;45.292;11.820;2023-05-21T13:47:05;8.70;;;4.82;;
67721;SDS011;58309;45.292;11.820;2023-05-21T13:49:34;7.90;;;5.00;;
67721;SDS011;58309;45.292;11.820;2023-05-21T13:54:26;6.18;;;4.70;;
67721;SDS011;58309;45.292;11.820;2023-05-21T13:56:52;9.90;;;5.00;;
67721;SDS011;58309;45.292;11.820;2023-05-21T13:59:18;12.13;;;4.60;;
67721;SDS011;58309;45.292;11.820;2023-05-21T14:01:44;8.82;;;4.68;;
67721;SDS011;58309;45.292;11.820;2023-05-21T14:04:10;7.50;;;4.88;;
67721;SDS011;58309;45.292;11.820;2023-05-21T14:06:36;7.03;;;4.40;;
67721;SDS011;58309;45.292;11.820;2023-05-21T14:09:02;5.90;;;4.90;;
67721;SDS011;58309;45.292;11.820;2023-05-21T14:11:29;5.68;;;4.68;;
67721;SDS011;58309;45.292;11.820;2023-05-21T14:13:55;8.38;;;5.40;;
67721;SDS011;58309;45.292;11.820;2023-05-21T14:16:21;4.97;;;4.53;;
67721;SDS011;58309;45.292;11.820;2023-05-21T14:18:48;5.90;;;4.82;;
67721;SDS011;58309;45.292;11.820;2023-05-21T14:21:14;7.10;;;5.03;;
67721;SDS011;58309;45.292;11.820;2023-05-21T14:23:40;6.78;;;4.97;;
67721;SDS011;58309;45.292;11.820;2023-05-21T14:26:05;9.48;;;4.85;;
67721;SDS011;58309;45.292;11.820;2023-05-21T14:28:31;6.55;;;4.60;;
67721;SDS011;58309;45.292;11.820;2023-05-21T14:30:57;9.32;;;5.35;;
67721;SDS011;58309;45.292;11.820;2023-05-21T14:33:22;7.43;;;4.60;;
67721;SDS011;58309;45.292;11.820;2023-05-21T14:35:48;6.38;;;5.20;;
67721;SDS011;58309;45.292;11.820;2023-05-21T14:38:13;7.45;;;4.70;;
67721;SDS011;58309;45.292;11.820;2023-05-21T14:40:39;6.15;;;4.43;;
67721;SDS011;58309;45.292;11.820;2023-05-21T14:43:05;6.43;;;4.75;;
67721;SDS011;58309;45.292;11.820;2023-05-21T14:45:31;8.68;;;4.97;;
67721;SDS011;58309;45.292;11.820;2023-05-21T14:48:00;9.63;;;4.78;;
67721;SDS011;58309;45.292;11.820;2023-05-21T14:50:26;6.40;;;4.85;;
67721;SDS011;58309;45.292;11.820;2023-05-21T14:52:51;13.10;;;5.22;;
67721;SDS011;58309;45.292;11.820;2023-05-21T14:55:18;6.22;;;4.80;;
67721;SDS011;58309;45.292;11.820;2023-05-21T14:57:46;8.73;;;4.40;;
67721;SDS011;58309;45.292;11.820;2023-05-21T15:00:12;7.20;;;5.18;;
67721;SDS011;58309;45.292;11.820;2023-05-21T15:02:38;7.95;;;4.63;;
67721;SDS011;58309;45.292;11.820;2023-05-21T15:05:04;4.75;;;4.32;;
67721;SDS011;58309;45.292;11.820;2023-05-21T15:07:30;5.70;;;4.95;;
67721;SDS011;58309;45.292;11.820;2023-05-21T15:09:56;5.60;;;4.97;;
67721;SDS011;58309;45.292;11.820;2023-05-21T15:12:21;5.95;;;4.60;;
67721;SDS011;58309;45.292;11.820;2023-05-21T15:14:47;9.05;;;4.78;;